sensor_id;sensor_type;location;lat;lon;timestamp;P1;durP1;ratioP1;P2;durP2;ratioP2
37151;SDS011;23046;50.112;8.952;2023-07-13T00:00:02;0.80;;;0.80;;
37151;SDS011;23046;50.112;8.952;2023-07-13T00:00:15;0.77;;;0.77;;
37151;SDS011;23046;50.112;8.952;2023-07-13T00:00:26;0.80;;;0.80;;
37151;SDS011;23046;50.112;8.952;2023-07-13T00:00:36;1.00;;;0.80;;
37151;SDS011;23046;50.112;8.952;2023-07-13T00:00:47;0.85;;;0.85;;
37151;SDS011;23046;50.112;8.952;2023-07-13T00:00:57;1.60;;;0.77;;
37151;SDS011;23046;50.112;8.952;2023-07-13T00:01:07;1.60;;;0.73;;
37151;SDS011;23046;50.112;8.952;2023-07-13T00:01:17;1.77;;;0.80;;
37151;SDS011;23046;50.112;8.952;2023-07-13T00:01:28;0.83;;;0.80;;
37151;SDS011;23046;50.112;8.952;2023-07-13T00:01:38;0.82;;;0.82;;
37151;SDS011;23046;50.112;8.952;2023-07-13T00:01:48;1.60;;;0.80;;
37151;SDS011;23046;50.112;8.952;2023-07-13T00:02:02;2.40;;;0.80;;
37151;SDS011;23046;50.112;8.952;2023-07-13T00:02:12;2.53;;;0.70;;
37151;SDS011;23046;50.112;8.952;2023-07-13T00:02:24;1.40;;;0.70;;
37151;SDS011;23046;50.112;8.952;2023-07-13T00:02:34;1.47;;;0.77;;
37151;SDS011;23046;50.112;8.952;2023-07-13T00:02:45;1.37;;;0.93;;
37151;SDS011;23046;50.112;8.952;2023-07-13T00:02:55;1.35;;;0.85;;
37151;SDS011;23046;50.112;8.952;2023-07-13T00:03:05;0.83;;;0.73;;
37151;SDS011;23046;50.112;8.952;2023-07-13T00:03:15;0.70;;;0.70;;
37151;SDS011;23046;50.112;8.952;2023-07-13T00:03:27;1.20;;;0.80;;
37151;SDS011;23046;50.112;8.952;2023-07-13T00:03:37;1.20;;;0.80;;
37151;SDS011;23046;50.112;8.952;2023-07-13T00:03:47;1.83;;;0.70;;
37151;SDS011;23046;50.112;8.952;2023-07-13T00:03:57;1.43;;;0.70;;
37151;SDS011;23046;50.112;8.952;2023-07-13T00:04:07;1.70;;;0.70;;
37151;SDS011;23046;50.112;8.952;2023-07-13T00:04:19;0.77;;;0.70;;
37151;SDS011;23046;50.112;8.952;2023-07-13T00:04:29;0.70;;;0.70;;
37151;SDS011;23046;50.112;8.952;2023-07-13T00:04:39;0.70;;;0.70;;
37151;SDS011;23046;50.112;8.952;2023-07-13T00:04:50;0.93;;;0.80;;
37151;SDS011;23046;50.112;8.952;2023-07-13T00:05:00;1.20;;;0.80;;
37151;SDS011;23046;50.112;8.952;2023-07-13T00:05:10;1.20;;;0.87;;
37151;SDS011;23046;50.112;8.952;2023-07-13T00:05:22;0.80;;;0.80;;
37151;SDS011;23046;50.112;8.952;2023-07-13T00:05:32;0.77;;;0.73;;
37151;SDS011;23046;50.112;8.952;2023-07-13T00:05:42;1.70;;;0.70;;
37151;SDS011;23046;50.112;8.952;2023-07-13T00:05:59;1.80;;;0.63;;
37151;SDS011;23046;50.112;8.952;2023-07-13T00:06:09;0.90;;;0.70;;
37151;SDS011;23046;50.112;8.952;2023-07-13T00:06:20;0.80;;;0.80;;
37151;SDS011;23046;50.112;8.952;2023-07-13T00:06:30;0.80;;;0.80;;
37151;SDS011;23046;50.112;8.952;2023-07-13T00:06:43;0.80;;;0.80;;
37151;SDS011;23046;50.112;8.952;2023-07-13T00:06:54;0.80;;;0.80;;
37151;SDS011;23046;50.112;8.952;2023-07-13T00:07:04;0.77;;;0.73;;
37151;SDS011;23046;50.112;8.952;2023-07-13T00:07:15;0.83;;;0.70;;
37151;SDS011;23046;50.112;8.952;2023-07-13T00:07:25;1.00;;;0.70;;
37151;SDS011;23046;50.112;8.952;2023-07-13T00:07:35;1.00;;;0.70;;
37151;SDS011;23046;50.112;8.952;2023-07-13T00:07:46;0.80;;;0.70;;
37151;SDS011;23046;50.112;8.952;2023-07-13T00:07:56;0.70;;;0.70;;
37151;SDS011;23046;50.112;8.952;2023-07-13T00:08:07;0.70;;;0.70;;
37151;SDS011;23046;50.112;8.952;2023-07-13T00:08:18;0.68;;;0.68;;
37151;SDS011;23046;50.112;8.952;2023-07-13T00:08:30;0.68;;;0.68;;
37151;SDS011;23046;50.112;8.952;2023-07-13T00:08:40;0.70;;;0.70;;
37151;SDS011;23046;50.112;8.952;2023-07-13T00:08:51;1.10;;;0.80;;
37151;SDS011;23046;50.112;8.952;2023-07-13T00:09:01;1.00;;;0.80;;
37151;SDS011;23046;50.112;8.952;2023-07-13T00:09:12;0.90;;;0.70;;
37151;SDS011;23046;50.112;8.952;2023-07-13T00:09:23;0.70;;;0.70;;
37151;SDS011;23046;50.112;8.952;2023-07-13T00:09:33;0.60;;;0.60;;
37151;SDS011;23046;50.112;8.952;2023-07-13T00:09:44;0.73;;;0.73;;
37151;SDS011;23046;50.112;8.952;2023-07-13T00:09:54;0.80;;;0.80;;
37151;SDS011;23046;50.112;8.952;2023-07-13T00:10:04;0.83;;;0.83;;
37151;SDS011;23046;50.112;8.952;2023-07-13T00:10:15;0.70;;;0.70;;
37151;SDS011;23046;50.112;8.952;2023-07-13T00:10:25;0.80;;;0.80;;
37151;SDS011;23046;50.112;8.952;2023-07-13T00:10:40;0.80;;;0.80;;
37151;SDS011;23046;50.112;8.952;2023-07-13T00:10:51;0.80;;;0.80;;
37151;SDS011;23046;50.112;8.952;2023-07-13T00:11:04;0.70;;;0.70;;
37151;SDS011;23046;50.112;8.952;2023-07-13T00:11:15;0.70;;;0.70;;
37151;SDS011;23046;50.112;8.952;2023-07-13T00:11:25;0.70;;;0.70;;
37151;SDS011;23046;50.112;8.952;2023-07-13T00:11:35;1.00;;;0.80;;
37151;SDS011;23046;50.112;8.952;2023-07-13T00:11:45;1.67;;;0.80;;
37151;SDS011;23046;50.112;8.952;2023-07-13T00:11:58;5.00;;;0.90;;
37151;SDS011;23046;50.112;8.952;2023-07-13T00:12:22;5.70;;;0.90;;
37151;SDS011;23046;50.112;8.952;2023-07-13T00:12:33;2.38;;;0.70;;
37151;SDS011;23046;50.112;8.952;2023-07-13T00:12:44;1.60;;;0.70;;
37151;SDS011;23046;50.112;8.952;2023-07-13T00:12:54;0.80;;;0.70;;
37151;SDS011;23046;50.112;8.952;2023-07-13T00:13:05;0.88;;;0.80;;
37151;SDS011;23046;50.112;8.952;2023-07-13T00:13:15;1.40;;;0.70;;
37151;SDS011;23046;50.112;8.952;2023-07-13T00:13:27;1.60;;;0.75;;
37151;SDS011;23046;50.112;8.952;2023-07-13T00:13:37;1.40;;;0.70;;
37151;SDS011;23046;50.112;8.952;2023-07-13T00:13:49;0.70;;;0.70;;
37151;SDS011;23046;50.112;8.952;2023-07-13T00:13:59;0.63;;;0.63;;
37151;SDS011;23046;50.112;8.952;2023-07-13T00:14:09;0.60;;;0.60;;
37151;SDS011;23046;50.112;8.952;2023-07-13T00:14:20;0.60;;;0.60;;
37151;SDS011;23046;50.112;8.952;2023-07-13T00:14:30;0.63;;;0.63;;
37151;SDS011;23046;50.112;8.952;2023-07-13T00:14:40;0.77;;;0.77;;
37151;SDS011;23046;50.112;8.952;2023-07-13T00:14:50;0.77;;;0.77;;
37151;SDS011;23046;50.112;8.952;2023-07-13T00:15:03;1.00;;;0.73;;
37151;SDS011;23046;50.112;8.952;2023-07-13T00:15:18;1.20;;;0.75;;
37151;SDS011;23046;50.112;8.952;2023-07-13T00:15:32;1.00;;;0.73;;
37151;SDS011;23046;50.112;8.952;2023-07-13T00:15:43;0.87;;;0.70;;
37151;SDS011;23046;50.112;8.952;2023-07-13T00:15:53;1.20;;;0.80;;
37151;SDS011;23046;50.112;8.952;2023-07-13T00:16:04;1.10;;;0.70;;
37151;SDS011;23046;50.112;8.952;2023-07-13T00:16:14;0.83;;;0.70;;
37151;SDS011;23046;50.112;8.952;2023-07-13T00:16:24;0.80;;;0.70;;
37151;SDS011;23046;50.112;8.952;2023-07-13T00:16:34;1.70;;;0.70;;
37151;SDS011;23046;50.112;8.952;2023-07-13T00:16:45;1.73;;;0.80;;
37151;SDS011;23046;50.112;8.952;2023-07-13T00:16:55;1.67;;;0.80;;
37151;SDS011;23046;50.112;8.952;2023-07-13T00:17:06;0.77;;;0.70;;
37151;SDS011;23046;50.112;8.952;2023-07-13T00:17:16;0.70;;;0.70;;
37151;SDS011;23046;50.112;8.952;2023-07-13T00:17:27;1.87;;;0.60;;
37151;SDS011;23046;50.112;8.952;2023-07-13T00:17:37;1.80;;;0.63;;
37151;SDS011;23046;50.112;8.952;2023-07-13T00:17:49;1.80;;;0.70;;
37151;SDS011;23046;50.112;8.952;2023-07-13T00:18:00;0.70;;;0.70;;
37151;SDS011;23046;50.112;8.952;2023-07-13T00:18:10;0.80;;;0.70;;
37151;SDS011;23046;50.112;8.952;2023-07-13T00:18:21;0.80;;;0.80;;
37151;SDS011;23046;50.112;8.952;2023-07-13T00:18:31;0.82;;;0.73;;
37151;SDS011;23046;50.112;8.952;2023-07-13T00:18:42;0.67;;;0.67;;
37151;SDS011;23046;50.112;8.952;2023-07-13T00:18:52;0.60;;;0.60;;
37151;SDS011;23046;50.112;8.952;2023-07-13T00:19:02;0.80;;;0.77;;
37151;SDS011;23046;50.112;8.952;2023-07-13T00:19:13;1.10;;;0.80;;
37151;SDS011;23046;50.112;8.952;2023-07-13T00:19:24;1.10;;;0.80;;
37151;SDS011;23046;50.112;8.952;2023-07-13T00:19:34;0.80;;;0.63;;
37151;SDS011;23046;50.112;8.952;2023-07-13T00:19:46;0.70;;;0.70;;
37151;SDS011;23046;50.112;8.952;2023-07-13T00:19:56;0.70;;;0.70;;
37151;SDS011;23046;50.112;8.952;2023-07-13T00:20:06;0.77;;;0.77;;
37151;SDS011;23046;50.112;8.952;2023-07-13T00:20:17;0.70;;;0.70;;
37151;SDS011;23046;50.112;8.952;2023-07-13T00:20:27;0.70;;;0.70;;
37151;SDS011;23046;50.112;8.952;2023-07-13T00:20:37;0.90;;;0.80;;
37151;SDS011;23046;50.112;8.952;2023-07-13T00:20:48;1.10;;;0.80;;
37151;SDS011;23046;50.112;8.952;2023-07-13T00:20:58;1.00;;;0.73;;
37151;SDS011;23046;50.112;8.952;2023-07-13T00:21:15;0.73;;;0.60;;
37151;SDS011;23046;50.112;8.952;2023-07-13T00:21:25;0.80;;;0.70;;
37151;SDS011;23046;50.112;8.952;2023-07-13T00:21:35;0.80;;;0.80;;
37151;SDS011;23046;50.112;8.952;2023-07-13T00:21:46;0.80;;;0.80;;
37151;SDS011;23046;50.112;8.952;2023-07-13T00:21:56;0.77;;;0.77;;
37151;SDS011;23046;50.112;8.952;2023-07-13T00:22:06;0.80;;;0.80;;
37151;SDS011;23046;50.112;8.952;2023-07-13T00:22:16;0.77;;;0.77;;
37151;SDS011;23046;50.112;8.952;2023-07-13T00:22:27;0.75;;;0.75;;
37151;SDS011;23046;50.112;8.952;2023-07-13T00:22:38;0.70;;;0.70;;
37151;SDS011;23046;50.112;8.952;2023-07-13T00:22:48;0.70;;;0.70;;
37151;SDS011;23046;50.112;8.952;2023-07-13T00:22:59;0.70;;;0.70;;
37151;SDS011;23046;50.112;8.952;2023-07-13T00:23:09;0.70;;;0.70;;
37151;SDS011;23046;50.112;8.952;2023-07-13T00:23:19;0.70;;;0.70;;
37151;SDS011;23046;50.112;8.952;2023-07-13T00:23:39;1.40;;;0.67;;
37151;SDS011;23046;50.112;8.952;2023-07-13T00:23:49;1.63;;;0.70;;
37151;SDS011;23046;50.112;8.952;2023-07-13T00:24:00;0.85;;;0.75;;
37151;SDS011;23046;50.112;8.952;2023-07-13T00:24:12;0.70;;;0.70;;
37151;SDS011;23046;50.112;8.952;2023-07-13T00:24:23;0.70;;;0.70;;
37151;SDS011;23046;50.112;8.952;2023-07-13T00:24:33;0.70;;;0.70;;
37151;SDS011;23046;50.112;8.952;2023-07-13T00:24:45;0.95;;;0.80;;
37151;SDS011;23046;50.112;8.952;2023-07-13T00:24:56;1.92;;;0.90;;
37151;SDS011;23046;50.112;8.952;2023-07-13T00:25:06;2.27;;;0.83;;
37151;SDS011;23046;50.112;8.952;2023-07-13T00:25:16;2.20;;;0.87;;
37151;SDS011;23046;50.112;8.952;2023-07-13T00:25:27;1.40;;;0.83;;
37151;SDS011;23046;50.112;8.952;2023-07-13T00:25:38;1.42;;;0.93;;
37151;SDS011;23046;50.112;8.952;2023-07-13T00:25:48;1.20;;;0.80;;
37151;SDS011;23046;50.112;8.952;2023-07-13T00:26:01;0.95;;;0.75;;
37151;SDS011;23046;50.112;8.952;2023-07-13T00:26:12;1.33;;;0.73;;
37151;SDS011;23046;50.112;8.952;2023-07-13T00:26:22;1.00;;;0.70;;
37151;SDS011;23046;50.112;8.952;2023-07-13T00:26:33;0.80;;;0.80;;
37151;SDS011;23046;50.112;8.952;2023-07-13T00:26:43;2.28;;;0.82;;
37151;SDS011;23046;50.112;8.952;2023-07-13T00:26:56;2.38;;;0.85;;
37151;SDS011;23046;50.112;8.952;2023-07-13T00:27:08;2.05;;;0.90;;
37151;SDS011;23046;50.112;8.952;2023-07-13T00:27:19;1.00;;;0.80;;
37151;SDS011;23046;50.112;8.952;2023-07-13T00:27:30;1.00;;;0.80;;
37151;SDS011;23046;50.112;8.952;2023-07-13T00:27:42;0.77;;;0.70;;
37151;SDS011;23046;50.112;8.952;2023-07-13T00:27:52;0.63;;;0.63;;
37151;SDS011;23046;50.112;8.952;2023-07-13T00:28:03;0.70;;;0.70;;
37151;SDS011;23046;50.112;8.952;2023-07-13T00:28:14;0.70;;;0.70;;
37151;SDS011;23046;50.112;8.952;2023-07-13T00:28:24;0.75;;;0.75;;
37151;SDS011;23046;50.112;8.952;2023-07-13T00:28:35;0.80;;;0.80;;
37151;SDS011;23046;50.112;8.952;2023-07-13T00:28:45;0.70;;;0.70;;
37151;SDS011;23046;50.112;8.952;2023-07-13T00:28:56;0.70;;;0.70;;
37151;SDS011;23046;50.112;8.952;2023-07-13T00:29:06;0.60;;;0.60;;
37151;SDS011;23046;50.112;8.952;2023-07-13T00:29:18;0.70;;;0.70;;
37151;SDS011;23046;50.112;8.952;2023-07-13T00:29:28;0.80;;;0.70;;
37151;SDS011;23046;50.112;8.952;2023-07-13T00:29:39;1.00;;;0.80;;
37151;SDS011;23046;50.112;8.952;2023-07-13T00:29:50;0.90;;;0.80;;
37151;SDS011;23046;50.112;8.952;2023-07-13T00:30:00;0.93;;;0.83;;
37151;SDS011;23046;50.112;8.952;2023-07-13T00:30:10;1.27;;;0.80;;
37151;SDS011;23046;50.112;8.952;2023-07-13T00:30:21;1.10;;;0.70;;
37151;SDS011;23046;50.112;8.952;2023-07-13T00:30:31;1.00;;;0.70;;
37151;SDS011;23046;50.112;8.952;2023-07-13T00:30:42;0.70;;;0.70;;
37151;SDS011;23046;50.112;8.952;2023-07-13T00:30:52;0.70;;;0.70;;
37151;SDS011;23046;50.112;8.952;2023-07-13T00:31:02;0.63;;;0.63;;
37151;SDS011;23046;50.112;8.952;2023-07-13T00:31:12;0.60;;;0.60;;
37151;SDS011;23046;50.112;8.952;2023-07-13T00:31:24;0.68;;;0.68;;
37151;SDS011;23046;50.112;8.952;2023-07-13T00:31:34;0.70;;;0.70;;
37151;SDS011;23046;50.112;8.952;2023-07-13T00:31:45;1.05;;;0.73;;
37151;SDS011;23046;50.112;8.952;2023-07-13T00:31:56;2.10;;;0.80;;
37151;SDS011;23046;50.112;8.952;2023-07-13T00:32:08;2.28;;;0.90;;
37151;SDS011;23046;50.112;8.952;2023-07-13T00:32:20;1.73;;;0.90;;
37151;SDS011;23046;50.112;8.952;2023-07-13T00:32:30;1.55;;;0.80;;
37151;SDS011;23046;50.112;8.952;2023-07-13T00:32:41;1.57;;;0.80;;
37151;SDS011;23046;50.112;8.952;2023-07-13T00:32:51;1.53;;;0.87;;
37151;SDS011;23046;50.112;8.952;2023-07-13T00:33:01;1.37;;;0.90;;
37151;SDS011;23046;50.112;8.952;2023-07-13T00:33:11;1.17;;;0.83;;
37151;SDS011;23046;50.112;8.952;2023-07-13T00:33:21;1.08;;;0.80;;
37151;SDS011;23046;50.112;8.952;2023-07-13T00:33:32;1.27;;;0.70;;
37151;SDS011;23046;50.112;8.952;2023-07-13T00:33:43;1.00;;;0.80;;
37151;SDS011;23046;50.112;8.952;2023-07-13T00:33:53;0.87;;;0.80;;
37151;SDS011;23046;50.112;8.952;2023-07-13T00:34:03;0.80;;;0.80;;
37151;SDS011;23046;50.112;8.952;2023-07-13T00:34:13;1.88;;;0.90;;
37151;SDS011;23046;50.112;8.952;2023-07-13T00:34:24;1.87;;;0.80;;
37151;SDS011;23046;50.112;8.952;2023-07-13T00:34:34;1.83;;;0.70;;
37151;SDS011;23046;50.112;8.952;2023-07-13T00:34:45;0.60;;;0.60;;
37151;SDS011;23046;50.112;8.952;2023-07-13T00:34:55;0.60;;;0.60;;
37151;SDS011;23046;50.112;8.952;2023-07-13T00:35:05;0.80;;;0.80;;
37151;SDS011;23046;50.112;8.952;2023-07-13T00:35:15;0.83;;;0.83;;
37151;SDS011;23046;50.112;8.952;2023-07-13T00:35:26;0.80;;;0.80;;
37151;SDS011;23046;50.112;8.952;2023-07-13T00:35:36;0.90;;;0.70;;
37151;SDS011;23046;50.112;8.952;2023-07-13T00:35:48;0.77;;;0.70;;
37151;SDS011;23046;50.112;8.952;2023-07-13T00:35:58;1.60;;;0.70;;
37151;SDS011;23046;50.112;8.952;2023-07-13T00:36:10;1.35;;;0.70;;
37151;SDS011;23046;50.112;8.952;2023-07-13T00:36:20;1.05;;;0.70;;
37151;SDS011;23046;50.112;8.952;2023-07-13T00:36:30;1.90;;;0.73;;
37151;SDS011;23046;50.112;8.952;2023-07-13T00:36:41;1.88;;;0.77;;
37151;SDS011;23046;50.112;8.952;2023-07-13T00:36:51;1.90;;;0.80;;
37151;SDS011;23046;50.112;8.952;2023-07-13T00:37:01;0.80;;;0.80;;
37151;SDS011;23046;50.112;8.952;2023-07-13T00:37:11;0.90;;;0.83;;
37151;SDS011;23046;50.112;8.952;2023-07-13T00:37:21;1.00;;;0.87;;
37151;SDS011;23046;50.112;8.952;2023-07-13T00:37:32;1.00;;;0.70;;
37151;SDS011;23046;50.112;8.952;2023-07-13T00:37:42;0.85;;;0.70;;
37151;SDS011;23046;50.112;8.952;2023-07-13T00:37:52;0.70;;;0.67;;
37151;SDS011;23046;50.112;8.952;2023-07-13T00:38:03;0.77;;;0.77;;
37151;SDS011;23046;50.112;8.952;2023-07-13T00:38:13;0.70;;;0.70;;
37151;SDS011;23046;50.112;8.952;2023-07-13T00:38:24;1.10;;;0.73;;
37151;SDS011;23046;50.112;8.952;2023-07-13T00:38:34;0.90;;;0.70;;
37151;SDS011;23046;50.112;8.952;2023-07-13T00:38:44;0.90;;;0.70;;
37151;SDS011;23046;50.112;8.952;2023-07-13T00:38:54;0.67;;;0.67;;
37151;SDS011;23046;50.112;8.952;2023-07-13T00:39:05;0.70;;;0.70;;
37151;SDS011;23046;50.112;8.952;2023-07-13T00:39:15;0.80;;;0.80;;
37151;SDS011;23046;50.112;8.952;2023-07-13T00:39:25;0.90;;;0.80;;
37151;SDS011;23046;50.112;8.952;2023-07-13T00:39:35;0.80;;;0.77;;
37151;SDS011;23046;50.112;8.952;2023-07-13T00:39:46;1.40;;;0.80;;
37151;SDS011;23046;50.112;8.952;2023-07-13T00:39:56;1.30;;;0.70;;
37151;SDS011;23046;50.112;8.952;2023-07-13T00:40:07;1.20;;;0.70;;
37151;SDS011;23046;50.112;8.952;2023-07-13T00:40:18;0.60;;;0.60;;
37151;SDS011;23046;50.112;8.952;2023-07-13T00:40:29;0.70;;;0.70;;
37151;SDS011;23046;50.112;8.952;2023-07-13T00:40:39;0.80;;;0.80;;
37151;SDS011;23046;50.112;8.952;2023-07-13T00:40:50;0.90;;;0.90;;
37151;SDS011;23046;50.112;8.952;2023-07-13T00:41:00;1.30;;;1.00;;
37151;SDS011;23046;50.112;8.952;2023-07-13T00:41:11;1.27;;;0.80;;
37151;SDS011;23046;50.112;8.952;2023-07-13T00:41:21;1.13;;;0.73;;
37151;SDS011;23046;50.112;8.952;2023-07-13T00:41:32;0.70;;;0.70;;
37151;SDS011;23046;50.112;8.952;2023-07-13T00:41:42;0.67;;;0.67;;
37151;SDS011;23046;50.112;8.952;2023-07-13T00:41:53;0.63;;;0.60;;
37151;SDS011;23046;50.112;8.952;2023-07-13T00:42:03;0.70;;;0.68;;
37151;SDS011;23046;50.112;8.952;2023-07-13T00:42:14;0.90;;;0.70;;
37151;SDS011;23046;50.112;8.952;2023-07-13T00:42:25;0.80;;;0.80;;
37151;SDS011;23046;50.112;8.952;2023-07-13T00:42:35;0.80;;;0.80;;
37151;SDS011;23046;50.112;8.952;2023-07-13T00:42:46;1.27;;;0.87;;
37151;SDS011;23046;50.112;8.952;2023-07-13T00:42:57;1.27;;;0.82;;
37151;SDS011;23046;50.112;8.952;2023-07-13T00:43:09;1.90;;;0.80;;
37151;SDS011;23046;50.112;8.952;2023-07-13T00:43:22;1.50;;;0.80;;
37151;SDS011;23046;50.112;8.952;2023-07-13T00:43:32;1.45;;;0.88;;
37151;SDS011;23046;50.112;8.952;2023-07-13T00:43:42;0.93;;;0.90;;
37151;SDS011;23046;50.112;8.952;2023-07-13T00:43:53;0.82;;;0.80;;
37151;SDS011;23046;50.112;8.952;2023-07-13T00:44:04;0.93;;;0.80;;
37151;SDS011;23046;50.112;8.952;2023-07-13T00:44:16;1.27;;;0.85;;
37151;SDS011;23046;50.112;8.952;2023-07-13T00:44:27;1.10;;;0.88;;
37151;SDS011;23046;50.112;8.952;2023-07-13T00:44:38;1.00;;;0.85;;
37151;SDS011;23046;50.112;8.952;2023-07-13T00:46:28;0.70;;;0.70;;
37151;SDS011;23046;50.112;8.952;2023-07-13T00:46:38;0.95;;;0.68;;
37151;SDS011;23046;50.112;8.952;2023-07-13T00:46:49;1.10;;;0.77;;
37151;SDS011;23046;50.112;8.952;2023-07-13T00:46:59;1.67;;;0.95;;
37151;SDS011;23046;50.112;8.952;2023-07-13T00:47:09;1.87;;;0.90;;
37151;SDS011;23046;50.112;8.952;2023-07-13T00:47:19;1.90;;;0.80;;
37151;SDS011;23046;50.112;8.952;2023-07-13T00:47:30;1.80;;;0.70;;
37151;SDS011;23046;50.112;8.952;2023-07-13T00:47:40;1.08;;;0.70;;
37151;SDS011;23046;50.112;8.952;2023-07-13T00:47:50;0.87;;;0.73;;
37151;SDS011;23046;50.112;8.952;2023-07-13T00:48:00;0.80;;;0.80;;
37151;SDS011;23046;50.112;8.952;2023-07-13T00:48:11;1.10;;;0.87;;
37151;SDS011;23046;50.112;8.952;2023-07-13T00:48:23;1.27;;;0.80;;
37151;SDS011;23046;50.112;8.952;2023-07-13T00:48:36;1.02;;;0.80;;
37151;SDS011;23046;50.112;8.952;2023-07-13T00:48:48;0.95;;;0.80;;
37151;SDS011;23046;50.112;8.952;2023-07-13T00:48:59;0.80;;;0.80;;
37151;SDS011;23046;50.112;8.952;2023-07-13T00:49:11;0.80;;;0.80;;
37151;SDS011;23046;50.112;8.952;2023-07-13T00:49:22;0.73;;;0.73;;
37151;SDS011;23046;50.112;8.952;2023-07-13T00:49:33;0.75;;;0.70;;
37151;SDS011;23046;50.112;8.952;2023-07-13T00:49:44;0.70;;;0.70;;
37151;SDS011;23046;50.112;8.952;2023-07-13T00:49:55;0.80;;;0.77;;
37151;SDS011;23046;50.112;8.952;2023-07-13T00:50:08;1.63;;;0.80;;
37151;SDS011;23046;50.112;8.952;2023-07-13T00:50:20;1.67;;;0.77;;
37151;SDS011;23046;50.112;8.952;2023-07-13T00:50:31;1.10;;;0.70;;
37151;SDS011;23046;50.112;8.952;2023-07-13T00:50:42;0.70;;;0.70;;
37151;SDS011;23046;50.112;8.952;2023-07-13T00:50:53;0.73;;;0.73;;
37151;SDS011;23046;50.112;8.952;2023-07-13T00:51:05;0.77;;;0.77;;
37151;SDS011;23046;50.112;8.952;2023-07-13T00:51:16;0.70;;;0.70;;
37151;SDS011;23046;50.112;8.952;2023-07-13T00:51:51;0.73;;;0.73;;
37151;SDS011;23046;50.112;8.952;2023-07-13T00:52:06;0.95;;;0.77;;
37151;SDS011;23046;50.112;8.952;2023-07-13T00:52:17;1.25;;;0.95;;
37151;SDS011;23046;50.112;8.952;2023-07-13T00:52:27;1.27;;;0.90;;
37151;SDS011;23046;50.112;8.952;2023-07-13T00:52:40;1.30;;;0.87;;
37151;SDS011;23046;50.112;8.952;2023-07-13T00:52:52;1.48;;;0.82;;
37151;SDS011;23046;50.112;8.952;2023-07-13T00:53:03;1.02;;;0.80;;
37151;SDS011;23046;50.112;8.952;2023-07-13T00:53:13;1.60;;;0.90;;
37151;SDS011;23046;50.112;8.952;2023-07-13T00:53:25;1.60;;;0.90;;
37151;SDS011;23046;50.112;8.952;2023-07-13T00:53:36;1.70;;;0.90;;
37151;SDS011;23046;50.112;8.952;2023-07-13T00:53:46;1.00;;;0.93;;
37151;SDS011;23046;50.112;8.952;2023-07-13T00:53:58;1.10;;;0.90;;
37151;SDS011;23046;50.112;8.952;2023-07-13T00:54:09;1.13;;;0.82;;
37151;SDS011;23046;50.112;8.952;2023-07-13T00:54:26;0.77;;;0.70;;
37151;SDS011;23046;50.112;8.952;2023-07-13T00:54:39;0.75;;;0.70;;
37151;SDS011;23046;50.112;8.952;2023-07-13T00:54:50;0.88;;;0.80;;
37151;SDS011;23046;50.112;8.952;2023-07-13T00:55:00;0.80;;;0.80;;
37151;SDS011;23046;50.112;8.952;2023-07-13T00:55:11;0.70;;;0.70;;
37151;SDS011;23046;50.112;8.952;2023-07-13T00:55:22;1.23;;;1.00;;
37151;SDS011;23046;50.112;8.952;2023-07-13T00:55:33;1.50;;;1.00;;
37151;SDS011;23046;50.112;8.952;2023-07-13T00:55:43;1.50;;;1.10;;
37151;SDS011;23046;50.112;8.952;2023-07-13T00:55:54;1.80;;;0.80;;
37151;SDS011;23046;50.112;8.952;2023-07-13T00:56:06;1.63;;;0.80;;
37151;SDS011;23046;50.112;8.952;2023-07-13T00:56:16;1.00;;;0.77;;
37151;SDS011;23046;50.112;8.952;2023-07-13T00:56:28;0.80;;;0.75;;
37151;SDS011;23046;50.112;8.952;2023-07-13T00:56:39;1.40;;;0.80;;
37151;SDS011;23046;50.112;8.952;2023-07-13T00:56:52;1.38;;;0.70;;
37151;SDS011;23046;50.112;8.952;2023-07-13T00:57:04;1.20;;;0.82;;
37151;SDS011;23046;50.112;8.952;2023-07-13T00:57:16;2.42;;;0.88;;
37151;SDS011;23046;50.112;8.952;2023-07-13T00:57:27;2.40;;;0.82;;
37151;SDS011;23046;50.112;8.952;2023-07-13T00:57:37;2.10;;;0.80;;
37151;SDS011;23046;50.112;8.952;2023-07-13T00:57:48;0.70;;;0.70;;
37151;SDS011;23046;50.112;8.952;2023-07-13T00:57:59;0.73;;;0.70;;
37151;SDS011;23046;50.112;8.952;2023-07-13T00:58:09;0.77;;;0.70;;
37151;SDS011;23046;50.112;8.952;2023-07-13T00:58:19;0.90;;;0.80;;
37151;SDS011;23046;50.112;8.952;2023-07-13T00:58:30;0.90;;;0.80;;
37151;SDS011;23046;50.112;8.952;2023-07-13T00:58:41;1.25;;;0.88;;
37151;SDS011;23046;50.112;8.952;2023-07-13T00:58:52;1.53;;;0.80;;
37151;SDS011;23046;50.112;8.952;2023-07-13T00:59:03;2.63;;;0.80;;
37151;SDS011;23046;50.112;8.952;2023-07-13T00:59:15;2.67;;;0.90;;
37151;SDS011;23046;50.112;8.952;2023-07-13T00:59:26;1.73;;;0.80;;
37151;SDS011;23046;50.112;8.952;2023-07-13T00:59:36;1.45;;;0.85;;
37151;SDS011;23046;50.112;8.952;2023-07-13T00:59:51;1.35;;;0.80;;
37151;SDS011;23046;50.112;8.952;2023-07-13T01:00:03;2.30;;;0.80;;
37151;SDS011;23046;50.112;8.952;2023-07-13T01:00:16;2.42;;;0.80;;
37151;SDS011;23046;50.112;8.952;2023-07-13T01:00:27;2.17;;;0.70;;
37151;SDS011;23046;50.112;8.952;2023-07-13T01:00:39;1.63;;;0.85;;
37151;SDS011;23046;50.112;8.952;2023-07-13T01:00:49;0.90;;;0.80;;
37151;SDS011;23046;50.112;8.952;2023-07-13T01:01:01;1.25;;;0.85;;
37151;SDS011;23046;50.112;8.952;2023-07-13T01:01:11;1.70;;;0.90;;
37151;SDS011;23046;50.112;8.952;2023-07-13T01:01:23;1.60;;;1.00;;
37151;SDS011;23046;50.112;8.952;2023-07-13T01:01:33;1.10;;;1.00;;
37151;SDS011;23046;50.112;8.952;2023-07-13T01:01:45;0.95;;;0.88;;
37151;SDS011;23046;50.112;8.952;2023-07-13T01:01:55;0.80;;;0.80;;
37151;SDS011;23046;50.112;8.952;2023-07-13T01:02:05;0.70;;;0.70;;
37151;SDS011;23046;50.112;8.952;2023-07-13T01:02:15;0.90;;;0.63;;
37151;SDS011;23046;50.112;8.952;2023-07-13T01:02:26;1.80;;;0.67;;
37151;SDS011;23046;50.112;8.952;2023-07-13T01:02:41;1.60;;;0.70;;
37151;SDS011;23046;50.112;8.952;2023-07-13T01:02:52;1.45;;;0.80;;
37151;SDS011;23046;50.112;8.952;2023-07-13T01:03:02;1.73;;;0.90;;
37151;SDS011;23046;50.112;8.952;2023-07-13T01:03:14;1.20;;;0.90;;
37151;SDS011;23046;50.112;8.952;2023-07-13T01:03:24;1.10;;;0.90;;
37151;SDS011;23046;50.112;8.952;2023-07-13T01:03:35;1.17;;;0.83;;
37151;SDS011;23046;50.112;8.952;2023-07-13T01:03:45;1.20;;;0.80;;
37151;SDS011;23046;50.112;8.952;2023-07-13T01:03:57;0.95;;;0.80;;
37151;SDS011;23046;50.112;8.952;2023-07-13T01:04:09;2.38;;;0.90;;
37151;SDS011;23046;50.112;8.952;2023-07-13T01:04:19;2.30;;;0.80;;
37151;SDS011;23046;50.112;8.952;2023-07-13T01:04:30;2.30;;;0.70;;
37151;SDS011;23046;50.112;8.952;2023-07-13T01:04:40;0.60;;;0.60;;
37151;SDS011;23046;50.112;8.952;2023-07-13T01:04:55;0.65;;;0.65;;
37151;SDS011;23046;50.112;8.952;2023-07-13T01:05:09;0.80;;;0.70;;
37151;SDS011;23046;50.112;8.952;2023-07-13T01:05:21;1.00;;;0.85;;
37151;SDS011;23046;50.112;8.952;2023-07-13T01:05:32;0.90;;;0.90;;
37151;SDS011;23046;50.112;8.952;2023-07-13T01:05:43;0.70;;;0.70;;
37151;SDS011;23046;50.112;8.952;2023-07-13T01:05:54;0.73;;;0.73;;
37151;SDS011;23046;50.112;8.952;2023-07-13T01:06:04;0.73;;;0.70;;
37151;SDS011;23046;50.112;8.952;2023-07-13T01:06:15;0.87;;;0.70;;
37151;SDS011;23046;50.112;8.952;2023-07-13T01:06:27;0.77;;;0.70;;
37151;SDS011;23046;50.112;8.952;2023-07-13T01:06:37;0.70;;;0.70;;
37151;SDS011;23046;50.112;8.952;2023-07-13T01:06:48;0.70;;;0.70;;
37151;SDS011;23046;50.112;8.952;2023-07-13T01:06:58;0.70;;;0.70;;
37151;SDS011;23046;50.112;8.952;2023-07-13T01:07:08;1.00;;;0.70;;
37151;SDS011;23046;50.112;8.952;2023-07-13T01:07:18;1.05;;;0.80;;
37151;SDS011;23046;50.112;8.952;2023-07-13T01:07:29;1.67;;;0.80;;
37151;SDS011;23046;50.112;8.952;2023-07-13T01:07:41;1.50;;;0.73;;
37151;SDS011;23046;50.112;8.952;2023-07-13T01:07:52;1.40;;;0.70;;
37151;SDS011;23046;50.112;8.952;2023-07-13T01:08:03;0.70;;;0.70;;